sensor_id;sensor_type;location;lat;lon;timestamp;temperature;humidity
66119;DHT22;52912;48.564;9.302;2024-03-02T00:00:21;6.43;95.44
66119;DHT22;52912;48.564;9.302;2024-03-02T00:02:48;6.43;95.62
66119;DHT22;52912;48.564;9.302;2024-03-02T00:05:15;6.45;95.46
66119;DHT22;52912;48.564;9.302;2024-03-02T00:07:41;6.38;95.41
66119;DHT22;52912;48.564;9.302;2024-03-02T00:10:09;6.33;95.59
66119;DHT22;52912;48.564;9.302;2024-03-02T00:12:35;6.22;95.59
66119;DHT22;52912;48.564;9.302;2024-03-02T00:15:01;6.12;95.84
66119;DHT22;52912;48.564;9.302;2024-03-02T00:17:29;6.04;96.33
66119;DHT22;52912;48.564;9.302;2024-03-02T00:19:54;5.91;96.89
66119;DHT22;52912;48.564;9.302;2024-03-02T00:22:20;5.93;96.87
66119;DHT22;52912;48.564;9.302;2024-03-02T00:24:46;6.00;96.83
66119;DHT22;52912;48.564;9.302;2024-03-02T00:27:14;6.01;96.52
66119;DHT22;52912;48.564;9.302;2024-03-02T00:29:40;5.97;96.90
66119;DHT22;52912;48.564;9.302;2024-03-02T00:32:09;5.90;97.13
66119;DHT22;52912;48.564;9.302;2024-03-02T00:34:37;5.86;97.41
66119;DHT22;52912;48.564;9.302;2024-03-02T00:37:02;6.04;97.14
66119;DHT22;52912;48.564;9.302;2024-03-02T00:39:29;6.07;97.06
66119;DHT22;52912;48.564;9.302;2024-03-02T00:41:54;6.14;96.91
66119;DHT22;52912;48.564;9.302;2024-03-02T00:44:25;6.18;96.72
66119;DHT22;52912;48.564;9.302;2024-03-02T00:46:51;6.15;96.44
66119;DHT22;52912;48.564;9.302;2024-03-02T00:49:18;6.01;96.94
66119;DHT22;52912;48.564;9.302;2024-03-02T00:51:48;5.97;97.21
66119;DHT22;52912;48.564;9.302;2024-03-02T00:54:14;5.87;97.44
66119;DHT22;52912;48.564;9.302;2024-03-02T00:56:41;5.89;97.57
66119;DHT22;52912;48.564;9.302;2024-03-02T00:59:07;5.83;97.87
66119;DHT22;52912;48.564;9.302;2024-03-02T01:01:32;5.86;97.57
66119;DHT22;52912;48.564;9.302;2024-03-02T01:03:58;5.86;97.63
66119;DHT22;52912;48.564;9.302;2024-03-02T01:06:23;5.80;97.59
66119;DHT22;52912;48.564;9.302;2024-03-02T01:08:50;5.74;97.89
66119;DHT22;52912;48.564;9.302;2024-03-02T01:11:16;5.71;98.03
66119;DHT22;52912;48.564;9.302;2024-03-02T01:13:41;5.71;98.00
66119;DHT22;52912;48.564;9.302;2024-03-02T01:16:07;5.69;98.10
66119;DHT22;52912;48.564;9.302;2024-03-02T01:18:32;5.66;98.45
66119;DHT22;52912;48.564;9.302;2024-03-02T01:20:58;5.65;98.37
66119;DHT22;52912;48.564;9.302;2024-03-02T01:23:24;5.63;98.34
66119;DHT22;52912;48.564;9.302;2024-03-02T01:25:51;5.56;98.70
66119;DHT22;52912;48.564;9.302;2024-03-02T01:28:17;5.48;99.35
66119;DHT22;52912;48.564;9.302;2024-03-02T01:30:43;5.46;99.37
66119;DHT22;52912;48.564;9.302;2024-03-02T01:33:08;5.48;99.22
66119;DHT22;52912;48.564;9.302;2024-03-02T01:35:34;5.50;99.30
66119;DHT22;52912;48.564;9.302;2024-03-02T01:37:59;5.50;99.11
66119;DHT22;52912;48.564;9.302;2024-03-02T01:40:25;5.48;99.15
66119;DHT22;52912;48.564;9.302;2024-03-02T01:42:52;5.43;99.34
66119;DHT22;52912;48.564;9.302;2024-03-02T01:45:18;5.36;99.31
66119;DHT22;52912;48.564;9.302;2024-03-02T01:47:43;5.42;99.35
66119;DHT22;52912;48.564;9.302;2024-03-02T01:50:11;5.41;99.13
66119;DHT22;52912;48.564;9.302;2024-03-02T01:52:36;5.46;98.97
66119;DHT22;52912;48.564;9.302;2024-03-02T01:55:03;5.39;98.61
66119;DHT22;52912;48.564;9.302;2024-03-02T01:57:28;5.28;98.93
66119;DHT22;52912;48.564;9.302;2024-03-02T01:59:55;5.17;99.26
66119;DHT22;52912;48.564;9.302;2024-03-02T02:02:21;5.14;99.55
66119;DHT22;52912;48.564;9.302;2024-03-02T02:04:46;5.11;99.47
66119;DHT22;52912;48.564;9.302;2024-03-02T02:07:12;5.05;99.81
66119;DHT22;52912;48.564;9.302;2024-03-02T02:09:38;5.03;99.88
66119;DHT22;52912;48.564;9.302;2024-03-02T02:12:04;5.04;99.99
66119;DHT22;52912;48.564;9.302;2024-03-02T02:14:29;4.98;99.99
66119;DHT22;52912;48.564;9.302;2024-03-02T02:16:56;5.04;99.99
66119;DHT22;52912;48.564;9.302;2024-03-02T02:19:22;5.01;99.77
66119;DHT22;52912;48.564;9.302;2024-03-02T02:21:49;4.98;99.50
66119;DHT22;52912;48.564;9.302;2024-03-02T02:24:14;4.97;99.58
66119;DHT22;52912;48.564;9.302;2024-03-02T02:26:40;4.91;99.44
66119;DHT22;52912;48.564;9.302;2024-03-02T02:29:05;4.90;99.39
66119;DHT22;52912;48.564;9.302;2024-03-02T02:31:36;4.79;99.72
66119;DHT22;52912;48.564;9.302;2024-03-02T02:34:02;4.79;99.62
66119;DHT22;52912;48.564;9.302;2024-03-02T02:36:28;4.80;99.50
66119;DHT22;52912;48.564;9.302;2024-03-02T02:38:55;4.80;99.36
66119;DHT22;52912;48.564;9.302;2024-03-02T02:41:21;4.76;99.02
66119;DHT22;52912;48.564;9.302;2024-03-02T02:43:46;4.68;99.19
66119;DHT22;52912;48.564;9.302;2024-03-02T02:46:11;4.63;99.02
66119;DHT22;52912;48.564;9.302;2024-03-02T02:48:37;4.62;99.17
66119;DHT22;52912;48.564;9.302;2024-03-02T02:51:03;4.60;98.93
66119;DHT22;52912;48.564;9.302;2024-03-02T02:53:28;4.48;99.25
66119;DHT22;52912;48.564;9.302;2024-03-02T02:55:55;4.49;99.35
66119;DHT22;52912;48.564;9.302;2024-03-02T02:58:20;4.40;99.87
66119;DHT22;52912;48.564;9.302;2024-03-02T03:00:46;4.34;99.99
66119;DHT22;52912;48.564;9.302;2024-03-02T03:03:11;4.30;99.99
66119;DHT22;52912;48.564;9.302;2024-03-02T03:05:37;4.30;99.99
66119;DHT22;52912;48.564;9.302;2024-03-02T03:08:03;4.22;99.99
66119;DHT22;52912;48.564;9.302;2024-03-02T03:10:28;4.15;99.99
66119;DHT22;52912;48.564;9.302;2024-03-02T03:12:55;4.15;99.99
66119;DHT22;52912;48.564;9.302;2024-03-02T03:15:21;4.18;99.97
66119;DHT22;52912;48.564;9.302;2024-03-02T03:17:46;4.10;99.89
66119;DHT22;52912;48.564;9.302;2024-03-02T03:20:12;4.07;99.88
66119;DHT22;52912;48.564;9.302;2024-03-02T03:22:38;4.00;99.99
66119;DHT22;52912;48.564;9.302;2024-03-02T03:25:04;3.97;99.99
66119;DHT22;52912;48.564;9.302;2024-03-02T03:27:30;3.85;99.99
66119;DHT22;52912;48.564;9.302;2024-03-02T03:29:58;3.85;99.99
66119;DHT22;52912;48.564;9.302;2024-03-02T03:32:23;3.86;99.99
66119;DHT22;52912;48.564;9.302;2024-03-02T03:34:48;3.80;99.99
66119;DHT22;52912;48.564;9.302;2024-03-02T03:37:14;3.85;99.99
66119;DHT22;52912;48.564;9.302;2024-03-02T03:39:40;3.86;99.99
66119;DHT22;52912;48.564;9.302;2024-03-02T03:42:05;3.79;99.99
66119;DHT22;52912;48.564;9.302;2024-03-02T03:44:31;3.79;99.99
66119;DHT22;52912;48.564;9.302;2024-03-02T03:46:57;3.73;99.99
66119;DHT22;52912;48.564;9.302;2024-03-02T03:49:23;3.72;99.99
66119;DHT22;52912;48.564;9.302;2024-03-02T03:51:48;3.61;99.99
66119;DHT22;52912;48.564;9.302;2024-03-02T03:54:14;3.63;99.99
66119;DHT22;52912;48.564;9.302;2024-03-02T03:56:39;3.65;99.99
66119;DHT22;52912;48.564;9.302;2024-03-02T03:59:05;3.63;99.99
66119;DHT22;52912;48.564;9.302;2024-03-02T04:01:30;3.65;99.99
66119;DHT22;52912;48.564;9.302;2024-03-02T04:03:57;3.66;99.99
66119;DHT22;52912;48.564;9.302;2024-03-02T04:06:22;3.62;99.22
66119;DHT22;52912;48.564;9.302;2024-03-02T04:08:48;3.46;99.99
66119;DHT22;52912;48.564;9.302;2024-03-02T04:11:13;3.45;99.83
66119;DHT22;52912;48.564;9.302;2024-03-02T04:13:39;3.36;99.99
66119;DHT22;52912;48.564;9.302;2024-03-02T04:16:05;3.45;99.99
66119;DHT22;52912;48.564;9.302;2024-03-02T04:18:30;3.50;99.99
66119;DHT22;52912;48.564;9.302;2024-03-02T04:20:57;3.56;99.99
66119;DHT22;52912;48.564;9.302;2024-03-02T04:23:23;3.54;99.99
66119;DHT22;52912;48.564;9.302;2024-03-02T04:25:48;3.55;99.99
66119;DHT22;52912;48.564;9.302;2024-03-02T04:28:13;3.62;99.99
66119;DHT22;52912;48.564;9.302;2024-03-02T04:30:39;3.50;99.99
66119;DHT22;52912;48.564;9.302;2024-03-02T04:33:05;3.54;99.99
66119;DHT22;52912;48.564;9.302;2024-03-02T04:35:30;3.42;99.99
66119;DHT22;52912;48.564;9.302;2024-03-02T04:37:57;3.41;99.99
66119;DHT22;52912;48.564;9.302;2024-03-02T04:40:22;3.44;99.99
66119;DHT22;52912;48.564;9.302;2024-03-02T04:42:48;3.17;99.99
66119;DHT22;52912;48.564;9.302;2024-03-02T04:45:13;3.17;99.99
66119;DHT22;52912;48.564;9.302;2024-03-02T04:47:39;3.21;99.99
66119;DHT22;52912;48.564;9.302;2024-03-02T04:50:06;3.14;99.99
66119;DHT22;52912;48.564;9.302;2024-03-02T04:52:31;3.01;99.99
66119;DHT22;52912;48.564;9.302;2024-03-02T04:54:58;2.96;99.99
66119;DHT22;52912;48.564;9.302;2024-03-02T04:57:23;2.89;99.99
66119;DHT22;52912;48.564;9.302;2024-03-02T04:59:49;2.90;99.99
66119;DHT22;52912;48.564;9.302;2024-03-02T05:02:14;2.90;99.99
66119;DHT22;52912;48.564;9.302;2024-03-02T05:04:40;2.93;99.99
66119;DHT22;52912;48.564;9.302;2024-03-02T05:07:05;2.92;99.99
66119;DHT22;52912;48.564;9.302;2024-03-02T05:09:31;2.95;99.99
66119;DHT22;52912;48.564;9.302;2024-03-02T05:11:58;2.92;99.99
66119;DHT22;52912;48.564;9.302;2024-03-02T05:14:23;2.99;99.99
66119;DHT22;52912;48.564;9.302;2024-03-02T05:16:48;3.08;99.99
66119;DHT22;52912;48.564;9.302;2024-03-02T05:19:14;3.36;99.99
66119;DHT22;52912;48.564;9.302;2024-03-02T05:21:39;3.54;99.99
66119;DHT22;52912;48.564;9.302;2024-03-02T05:24:05;3.58;99.99
66119;DHT22;52912;48.564;9.302;2024-03-02T05:26:30;3.63;99.99
66119;DHT22;52912;48.564;9.302;2024-03-02T05:28:57;3.55;99.99
66119;DHT22;52912;48.564;9.302;2024-03-02T05:31:23;3.58;99.99
66119;DHT22;52912;48.564;9.302;2024-03-02T05:33:48;3.38;99.99
66119;DHT22;52912;48.564;9.302;2024-03-02T05:36:13;3.36;99.99
66119;DHT22;52912;48.564;9.302;2024-03-02T05:38:39;3.32;99.99
66119;DHT22;52912;48.564;9.302;2024-03-02T05:41:04;3.30;99.99
66119;DHT22;52912;48.564;9.302;2024-03-02T05:43:30;3.21;99.99
66119;DHT22;52912;48.564;9.302;2024-03-02T05:45:57;3.08;99.99
66119;DHT22;52912;48.564;9.302;2024-03-02T05:48:22;2.80;99.99
66119;DHT22;52912;48.564;9.302;2024-03-02T05:50:48;2.68;99.99
66119;DHT22;52912;48.564;9.302;2024-03-02T05:53:13;2.48;99.99
66119;DHT22;52912;48.564;9.302;2024-03-02T05:55:39;2.44;99.99
66119;DHT22;52912;48.564;9.302;2024-03-02T05:58:04;2.34;99.99
66119;DHT22;52912;48.564;9.302;2024-03-02T06:00:30;2.35;99.99
66119;DHT22;52912;48.564;9.302;2024-03-02T06:02:57;2.49;99.99
66119;DHT22;52912;48.564;9.302;2024-03-02T06:05:22;3.03;99.99
66119;DHT22;52912;48.564;9.302;2024-03-02T06:07:47;2.99;99.99
66119;DHT22;52912;48.564;9.302;2024-03-02T06:10:14;3.03;99.99
66119;DHT22;52912;48.564;9.302;2024-03-02T06:12:40;3.30;99.99
66119;DHT22;52912;48.564;9.302;2024-03-02T06:15:06;3.39;99.99
66119;DHT22;52912;48.564;9.302;2024-03-02T06:17:31;3.18;99.99
66119;DHT22;52912;48.564;9.302;2024-03-02T06:19:59;2.99;99.99
66119;DHT22;52912;48.564;9.302;2024-03-02T06:22:24;2.85;99.99
66119;DHT22;52912;48.564;9.302;2024-03-02T06:24:49;2.71;99.99
66119;DHT22;52912;48.564;9.302;2024-03-02T06:27:15;2.56;99.99
66119;DHT22;52912;48.564;9.302;2024-03-02T06:29:40;2.40;99.99
66119;DHT22;52912;48.564;9.302;2024-03-02T06:32:06;2.31;99.99
66119;DHT22;52912;48.564;9.302;2024-03-02T06:34:31;2.25;99.99
66119;DHT22;52912;48.564;9.302;2024-03-02T06:36:58;2.34;99.99
66119;DHT22;52912;48.564;9.302;2024-03-02T06:39:24;2.31;99.99
66119;DHT22;52912;48.564;9.302;2024-03-02T06:41:49;2.52;99.99
66119;DHT22;52912;48.564;9.302;2024-03-02T06:44:14;2.62;99.99
66119;DHT22;52912;48.564;9.302;2024-03-02T06:46:40;2.56;99.99
66119;DHT22;52912;48.564;9.302;2024-03-02T06:49:05;2.80;99.99
66119;DHT22;52912;48.564;9.302;2024-03-02T06:51:31;2.80;99.99
66119;DHT22;52912;48.564;9.302;2024-03-02T06:53:58;2.90;99.99
66119;DHT22;52912;48.564;9.302;2024-03-02T06:56:23;3.08;99.99
66119;DHT22;52912;48.564;9.302;2024-03-02T06:58:48;3.48;99.99
66119;DHT22;52912;48.564;9.302;2024-03-02T07:01:14;3.78;99.98
66119;DHT22;52912;48.564;9.302;2024-03-02T07:03:39;4.08;99.21
66119;DHT22;52912;48.564;9.302;2024-03-02T07:06:05;3.98;99.35
66119;DHT22;52912;48.564;9.302;2024-03-02T07:08:30;3.54;99.20
66119;DHT22;52912;48.564;9.302;2024-03-02T07:10:57;3.54;99.99
66119;DHT22;52912;48.564;9.302;2024-03-02T07:13:22;3.86;99.74
66119;DHT22;52912;48.564;9.302;2024-03-02T07:15:48;4.03;99.71
66119;DHT22;52912;48.564;9.302;2024-03-02T07:18:13;4.45;98.97
66119;DHT22;52912;48.564;9.302;2024-03-02T07:20:39;4.86;97.36
66119;DHT22;52912;48.564;9.302;2024-03-02T07:23:04;5.28;95.92
66119;DHT22;52912;48.564;9.302;2024-03-02T07:25:30;5.60;95.34
66119;DHT22;52912;48.564;9.302;2024-03-02T07:27:57;5.95;94.05
66119;DHT22;52912;48.564;9.302;2024-03-02T07:30:22;6.28;92.78
66119;DHT22;52912;48.564;9.302;2024-03-02T07:32:50;6.54;92.91
66119;DHT22;52912;48.564;9.302;2024-03-02T07:35:15;6.72;92.73
66119;DHT22;52912;48.564;9.302;2024-03-02T07:37:41;6.69;91.42
66119;DHT22;52912;48.564;9.302;2024-03-02T07:40:08;6.80;91.64
66119;DHT22;52912;48.564;9.302;2024-03-02T07:42:34;6.93;91.23
66119;DHT22;52912;48.564;9.302;2024-03-02T07:45:01;6.98;90.54
66119;DHT22;52912;48.564;9.302;2024-03-02T07:47:26;7.08;90.85
66119;DHT22;52912;48.564;9.302;2024-03-02T07:49:52;7.01;90.52
66119;DHT22;52912;48.564;9.302;2024-03-02T07:52:17;6.91;90.51
66119;DHT22;52912;48.564;9.302;2024-03-02T07:54:42;6.93;90.51
66119;DHT22;52912;48.564;9.302;2024-03-02T07:57:08;6.95;89.86
66119;DHT22;52912;48.564;9.302;2024-03-02T07:59:33;7.05;89.94
66119;DHT22;52912;48.564;9.302;2024-03-02T08:02:00;7.16;89.33
66119;DHT22;52912;48.564;9.302;2024-03-02T08:04:26;7.29;89.66
66119;DHT22;52912;48.564;9.302;2024-03-02T08:06:51;7.26;89.34
66119;DHT22;52912;48.564;9.302;2024-03-02T08:09:17;6.94;93.71
66119;DHT22;52912;48.564;9.302;2024-03-02T08:11:42;6.60;93.89
66119;DHT22;52912;48.564;9.302;2024-03-02T08:14:08;6.67;92.58
66119;DHT22;52912;48.564;9.302;2024-03-02T08:16:33;6.81;91.66
66119;DHT22;52912;48.564;9.302;2024-03-02T08:19:00;7.01;90.16
66119;DHT22;52912;48.564;9.302;2024-03-02T08:21:25;7.16;89.66
66119;DHT22;52912;48.564;9.302;2024-03-02T08:23:51;7.50;88.21
66119;DHT22;52912;48.564;9.302;2024-03-02T08:26:16;7.69;87.47
66119;DHT22;52912;48.564;9.302;2024-03-02T08:28:42;7.92;86.50
66119;DHT22;52912;48.564;9.302;2024-03-02T08:31:08;8.13;86.49
66119;DHT22;52912;48.564;9.302;2024-03-02T08:33:33;8.54;85.99
66119;DHT22;52912;48.564;9.302;2024-03-02T08:36:00;8.60;85.81
66119;DHT22;52912;48.564;9.302;2024-03-02T08:38:26;8.82;85.27
66119;DHT22;52912;48.564;9.302;2024-03-02T08:40:52;8.92;84.86
66119;DHT22;52912;48.564;9.302;2024-03-02T08:43:17;9.25;85.21
66119;DHT22;52912;48.564;9.302;2024-03-02T08:45:43;9.53;83.87
66119;DHT22;52912;48.564;9.302;2024-03-02T08:48:09;9.57;83.29
66119;DHT22;52912;48.564;9.302;2024-03-02T08:50:34;9.89;83.22
66119;DHT22;52912;48.564;9.302;2024-03-02T08:53:03;10.03;83.00
66119;DHT22;52912;48.564;9.302;2024-03-02T08:55:28;10.17;82.02
66119;DHT22;52912;48.564;9.302;2024-03-02T08:57:54;10.23;85.48
66119;DHT22;52912;48.564;9.302;2024-03-02T09:00:20;10.23;85.15
66119;DHT22;52912;48.564;9.302;2024-03-02T09:02:46;10.32;85.70
66119;DHT22;52912;48.564;9.302;2024-03-02T09:05:12;10.47;84.84
66119;DHT22;52912;48.564;9.302;2024-03-02T09:07:37;10.59;85.65
66119;DHT22;52912;48.564;9.302;2024-03-02T09:10:05;10.26;87.65
66119;DHT22;52912;48.564;9.302;2024-03-02T09:12:30;10.26;88.07
66119;DHT22;52912;48.564;9.302;2024-03-02T09:14:56;9.95;88.66
66119;DHT22;52912;48.564;9.302;2024-03-02T09:17:21;10.19;87.47
66119;DHT22;52912;48.564;9.302;2024-03-02T09:19:47;10.29;86.70
66119;DHT22;52912;48.564;9.302;2024-03-02T09:22:12;10.57;86.07
66119;DHT22;52912;48.564;9.302;2024-03-02T09:24:38;10.82;85.05
66119;DHT22;52912;48.564;9.302;2024-03-02T09:27:05;10.87;85.22
66119;DHT22;52912;48.564;9.302;2024-03-02T09:29:30;10.88;84.91
66119;DHT22;52912;48.564;9.302;2024-03-02T09:31:56;11.12;83.97
66119;DHT22;52912;48.564;9.302;2024-03-02T09:34:21;11.46;84.42
66119;DHT22;52912;48.564;9.302;2024-03-02T09:36:47;11.32;83.15
66119;DHT22;52912;48.564;9.302;2024-03-02T09:39:12;11.56;83.36
66119;DHT22;52912;48.564;9.302;2024-03-02T09:41:39;11.94;81.87
66119;DHT22;52912;48.564;9.302;2024-03-02T09:44:06;11.75;81.91
66119;DHT22;52912;48.564;9.302;2024-03-02T09:46:31;11.96;82.86
66119;DHT22;52912;48.564;9.302;2024-03-02T09:48:57;12.08;81.83
66119;DHT22;52912;48.564;9.302;2024-03-02T09:51:23;12.43;81.42
66119;DHT22;52912;48.564;9.302;2024-03-02T09:53:49;12.83;80.64
66119;DHT22;52912;48.564;9.302;2024-03-02T09:56:14;12.99;79.74
66119;DHT22;52912;48.564;9.302;2024-03-02T09:58:40;13.12;78.50
66119;DHT22;52912;48.564;9.302;2024-03-02T10:01:07;13.56;77.97
66119;DHT22;52912;48.564;9.302;2024-03-02T10:03:33;13.54;77.38
66119;DHT22;52912;48.564;9.302;2024-03-02T10:06:20;13.70;76.60
66119;DHT22;52912;48.564;9.302;2024-03-02T10:08:46;14.30;74.83
66119;DHT22;52912;48.564;9.302;2024-03-02T10:11:25;14.67;74.29
66119;DHT22;52912;48.564;9.302;2024-03-02T10:13:51;14.96;73.64
66119;DHT22;52912;48.564;9.302;2024-03-02T10:16:18;14.72;73.41
66119;DHT22;52912;48.564;9.302;2024-03-02T10:18:43;15.09;71.44
66119;DHT22;52912;48.564;9.302;2024-03-02T10:21:13;15.40;70.78
66119;DHT22;52912;48.564;9.302;2024-03-02T10:23:39;15.50;70.84
66119;DHT22;52912;48.564;9.302;2024-03-02T10:26:16;15.32;72.86
66119;DHT22;52912;48.564;9.302;2024-03-02T10:28:46;15.37;71.99
66119;DHT22;52912;48.564;9.302;2024-03-02T10:31:11;15.39;73.50
66119;DHT22;52912;48.564;9.302;2024-03-02T10:33:38;15.67;73.66
66119;DHT22;52912;48.564;9.302;2024-03-02T10:36:05;16.19;71.44
66119;DHT22;52912;48.564;9.302;2024-03-02T10:38:30;16.02;71.65
66119;DHT22;52912;48.564;9.302;2024-03-02T10:40:57;16.16;73.74
66119;DHT22;52912;48.564;9.302;2024-03-02T10:43:23;16.10;72.99
66119;DHT22;52912;48.564;9.302;2024-03-02T10:45:49;16.23;73.17
66119;DHT22;52912;48.564;9.302;2024-03-02T10:48:14;16.05;72.66
66119;DHT22;52912;48.564;9.302;2024-03-02T10:50:42;16.26;73.03
66119;DHT22;52912;48.564;9.302;2024-03-02T10:53:07;16.29;73.44
66119;DHT22;52912;48.564;9.302;2024-03-02T10:55:32;16.17;73.23
66119;DHT22;52912;48.564;9.302;2024-03-02T10:58:00;15.82;74.10
66119;DHT22;52912;48.564;9.302;2024-03-02T11:00:30;15.81;73.81
66119;DHT22;52912;48.564;9.302;2024-03-02T11:02:59;16.24;72.59
66119;DHT22;52912;48.564;9.302;2024-03-02T11:05:33;16.89;71.14
66119;DHT22;52912;48.564;9.302;2024-03-02T11:08:02;16.79;70.73
66119;DHT22;52912;48.564;9.302;2024-03-02T11:10:35;16.71;70.56
66119;DHT22;52912;48.564;9.302;2024-03-02T11:13:05;16.95;70.80
66119;DHT22;52912;48.564;9.302;2024-03-02T11:15:30;16.65;69.81
66119;DHT22;52912;48.564;9.302;2024-03-02T11:17:57;16.27;70.83
66119;DHT22;52912;48.564;9.302;2024-03-02T11:20:23;15.78;70.62
66119;DHT22;52912;48.564;9.302;2024-03-02T11:22:49;16.37;70.12
66119;DHT22;52912;48.564;9.302;2024-03-02T11:25:25;16.30;68.10
66119;DHT22;52912;48.564;9.302;2024-03-02T11:28:02;16.98;67.55
66119;DHT22;52912;48.564;9.302;2024-03-02T11:30:51;16.88;65.10
66119;DHT22;52912;48.564;9.302;2024-03-02T11:33:26;17.36;62.47
66119;DHT22;52912;48.564;9.302;2024-03-02T11:35:51;17.39;62.15
66119;DHT22;52912;48.564;9.302;2024-03-02T11:38:17;18.06;62.46
66119;DHT22;52912;48.564;9.302;2024-03-02T11:40:44;18.01;61.50
66119;DHT22;52912;48.564;9.302;2024-03-02T11:43:10;17.91;60.78
66119;DHT22;52912;48.564;9.302;2024-03-02T11:45:36;18.08;60.16
66119;DHT22;52912;48.564;9.302;2024-03-02T11:48:05;18.47;59.64
66119;DHT22;52912;48.564;9.302;2024-03-02T11:50:34;17.89;61.03
66119;DHT22;52912;48.564;9.302;2024-03-02T11:53:00;18.25;59.61
66119;DHT22;52912;48.564;9.302;2024-03-02T11:55:26;18.43;59.03
66119;DHT22;52912;48.564;9.302;2024-03-02T11:57:53;18.58;58.92
66119;DHT22;52912;48.564;9.302;2024-03-02T12:00:19;18.08;60.64
66119;DHT22;52912;48.564;9.302;2024-03-02T12:02:45;17.91;59.20
66119;DHT22;52912;48.564;9.302;2024-03-02T12:05:13;17.77;59.82
66119;DHT22;52912;48.564;9.302;2024-03-02T12:07:39;18.19;58.92
66119;DHT22;52912;48.564;9.302;2024-03-02T12:10:05;18.51;58.99
66119;DHT22;52912;48.564;9.302;2024-03-02T12:12:31;18.29;58.66
66119;DHT22;52912;48.564;9.302;2024-03-02T12:14:57;18.20;58.44
66119;DHT22;52912;48.564;9.302;2024-03-02T12:17:23;18.13;57.54
66119;DHT22;52912;48.564;9.302;2024-03-02T12:19:48;18.60;57.85
66119;DHT22;52912;48.564;9.302;2024-03-02T12:22:14;18.78;56.80
66119;DHT22;52912;48.564;9.302;2024-03-02T12:24:39;19.49;56.28
66119;DHT22;52912;48.564;9.302;2024-03-02T12:27:06;19.60;56.76
66119;DHT22;52912;48.564;9.302;2024-03-02T12:29:32;19.26;55.82
66119;DHT22;52912;48.564;9.302;2024-03-02T12:31:59;19.55;55.57
66119;DHT22;52912;48.564;9.302;2024-03-02T12:34:25;20.12;55.48
66119;DHT22;52912;48.564;9.302;2024-03-02T12:36:51;19.95;54.97
66119;DHT22;52912;48.564;9.302;2024-03-02T12:39:17;19.51;56.27
66119;DHT22;52912;48.564;9.302;2024-03-02T12:41:42;19.19;55.59
66119;DHT22;52912;48.564;9.302;2024-03-02T12:44:08;20.08;53.77
66119;DHT22;52912;48.564;9.302;2024-03-02T12:46:34;19.67;54.11
66119;DHT22;52912;48.564;9.302;2024-03-02T12:49:08;19.38;55.92
66119;DHT22;52912;48.564;9.302;2024-03-02T12:51:33;20.20;53.48
66119;DHT22;52912;48.564;9.302;2024-03-02T12:53:59;19.79;54.92
66119;DHT22;52912;48.564;9.302;2024-03-02T12:56:25;20.33;54.29
66119;DHT22;52912;48.564;9.302;2024-03-02T12:58:53;20.39;54.34
66119;DHT22;52912;48.564;9.302;2024-03-02T13:01:19;20.22;53.15
66119;DHT22;52912;48.564;9.302;2024-03-02T13:03:44;20.13;53.50
66119;DHT22;52912;48.564;9.302;2024-03-02T13:06:11;20.08;53.87
66119;DHT22;52912;48.564;9.302;2024-03-02T13:08:36;20.92;52.71
66119;DHT22;52912;48.564;9.302;2024-03-02T13:11:02;20.64;52.53
66119;DHT22;52912;48.564;9.302;2024-03-02T13:13:30;20.87;52.64
66119;DHT22;52912;48.564;9.302;2024-03-02T13:15:56;21.27;52.35
66119;DHT22;52912;48.564;9.302;2024-03-02T13:18:21;21.12;52.76
66119;DHT22;52912;48.564;9.302;2024-03-02T13:20:47;20.85;52.60
66119;DHT22;52912;48.564;9.302;2024-03-02T13:23:14;20.44;52.96
66119;DHT22;52912;48.564;9.302;2024-03-02T13:25:39;20.37;53.18
66119;DHT22;52912;48.564;9.302;2024-03-02T13:28:05;20.12;53.58
66119;DHT22;52912;48.564;9.302;2024-03-02T13:30:31;20.19;53.83
66119;DHT22;52912;48.564;9.302;2024-03-02T13:32:56;20.17;55.01
66119;DHT22;52912;48.564;9.302;2024-03-02T13:35:22;20.12;55.28
66119;DHT22;52912;48.564;9.302;2024-03-02T13:37:47;20.23;53.91
66119;DHT22;52912;48.564;9.302;2024-03-02T13:40:14;19.85;55.30
66119;DHT22;52912;48.564;9.302;2024-03-02T13:42:40;20.51;55.51
66119;DHT22;52912;48.564;9.302;2024-03-02T13:45:06;20.75;54.86
66119;DHT22;52912;48.564;9.302;2024-03-02T13:47:31;20.77;54.00
66119;DHT22;52912;48.564;9.302;2024-03-02T13:49:57;20.20;54.22
66119;DHT22;52912;48.564;9.302;2024-03-02T13:52:22;20.79;54.38
66119;DHT22;52912;48.564;9.302;2024-03-02T13:54:48;20.47;54.75
66119;DHT22;52912;48.564;9.302;2024-03-02T13:57:15;20.27;54.73
66119;DHT22;52912;48.564;9.302;2024-03-02T13:59:42;19.70;55.52
66119;DHT22;52912;48.564;9.302;2024-03-02T14:02:08;19.72;55.51
66119;DHT22;52912;48.564;9.302;2024-03-02T14:04:34;19.67;54.83
66119;DHT22;52912;48.564;9.302;2024-03-02T14:07:00;19.58;54.35
66119;DHT22;52912;48.564;9.302;2024-03-02T14:09:25;19.70;54.67
66119;DHT22;52912;48.564;9.302;2024-03-02T14:11:51;19.51;54.21
66119;DHT22;52912;48.564;9.302;2024-03-02T14:14:18;19.46;52.86
66119;DHT22;52912;48.564;9.302;2024-03-02T14:16:43;18.91;53.67
66119;DHT22;52912;48.564;9.302;2024-03-02T14:19:09;19.03;54.44
66119;DHT22;52912;48.564;9.302;2024-03-02T14:21:35;18.36;54.81
66119;DHT22;52912;48.564;9.302;2024-03-02T14:24:00;18.65;54.76
66119;DHT22;52912;48.564;9.302;2024-03-02T14:26:25;18.92;54.52
66119;DHT22;52912;48.564;9.302;2024-03-02T14:28:51;18.51;54.89
66119;DHT22;52912;48.564;9.302;2024-03-02T14:31:18;18.56;54.21
66119;DHT22;52912;48.564;9.302;2024-03-02T14:33:43;18.47;54.24
66119;DHT22;52912;48.564;9.302;2024-03-02T14:36:09;18.20;55.05
66119;DHT22;52912;48.564;9.302;2024-03-02T14:38:34;18.09;54.52
66119;DHT22;52912;48.564;9.302;2024-03-02T14:41:00;18.54;54.70
66119;DHT22;52912;48.564;9.302;2024-03-02T14:43:25;18.51;54.16
